Borrego Springs, California
Current Conditions -  °F | °C
As of 9:52 AM on Saturday 20 Dec 2014 (Local Time) from KTRM Reporting Station
Clear Clear  
Wind Chill: 60°   Ceiling: Unl
Heat Index: 60°   Visibility: 10mi
Dew Point: 43°   Wind: 3mph
Humidity: 53%   Direction: 10°N
Pressure: 30.17"   Gusts: NA
Location:  33.26°N, 116.38°W
Report Text: KTRM 201752Z AUTO 01003KT 10SM CLR 16/06 A3017 RMK AO2 SLP217 T01560061 10156 20033 51010 TSNO
Loading
Personal Weather Stations






























Interactive Weather Map New forecast layout! Learn more

10-Day Weather Forecast

Advertisements
Track Severe Weather on mobile